Time;durP1;ratioP1;P1;durP2;ratioP2;P2;SDS_P1;SDS_P2;PMS_P1;PMS_P2;Temp;Humidity;BMP_temperature;BMP_pressure;BME280_temperature;BME280_humidity;BME280_pressure;Samples;Min_cycle;Max_cycle;Signal;HPM_P1;HPM_P2
2021/08/26 00:06:40;;;;;;;15.60;14.00;;;17.40;99.90;;;;;;5022964;28;20242;-39
2021/08/26 00:09:06;;;;;;;15.43;13.77;;;17.40;99.90;;;;;;5022298;28;20449;-38
2021/08/26 00:11:32;;;;;;;14.43;13.03;;;17.40;99.90;;;;;;5061119;28;20286;-39
2021/08/26 00:13:58;;;;;;;15.20;13.70;;;17.40;99.90;;;;;;5118647;27;20203;-43
2021/08/26 00:16:25;;;;;;;14.37;12.90;;;17.30;99.90;;;;;;5120517;27;20452;-38
2021/08/26 00:18:51;;;;;;;14.50;13.03;;;17.30;99.90;;;;;;5118882;27;20206;-40
2021/08/26 00:21:17;;;;;;;16.17;14.50;;;17.30;99.90;;;;;;5105902;28;20959;-40
2021/08/26 00:23:43;;;;;;;15.10;13.50;;;17.30;99.90;;;;;;5121673;27;20413;-39
2021/08/26 00:26:09;;;;;;;17.07;15.30;;;17.30;99.90;;;;;;5126543;27;20716;-38
2021/08/26 00:28:35;;;;;;;14.20;12.70;;;17.30;99.90;;;;;;5124367;28;20439;-41
2021/08/26 00:31:01;;;;;;;13.87;12.27;;;17.30;99.90;;;;;;5112125;28;20417;-39
2021/08/26 00:33:26;;;;;;;17.17;14.70;;;17.30;99.90;;;;;;5125614;28;20404;-38
2021/08/26 00:35:52;;;;;;;14.00;12.60;;;17.30;99.90;;;;;;5107847;28;20465;-38
2021/08/26 00:38:20;;;;;;;14.80;13.27;;;17.40;99.90;;;;;;5126356;28;20216;-39
2021/08/26 00:40:47;;;;;;;13.97;12.57;;;17.40;99.90;;;;;;5124947;28;20542;-38
2021/08/26 00:43:13;;;;;;;13.23;11.30;;;17.40;99.90;;;;;;5126502;28;20450;-42
2021/08/26 00:45:41;;;;;;;14.23;12.70;;;17.40;99.90;;;;;;5112932;28;20445;-38
2021/08/26 00:48:08;;;;;;;13.63;11.63;;;17.40;99.90;;;;;;5126490;28;20561;-39
2021/08/26 00:50:35;;;;;;;12.87;11.30;;;17.40;99.90;;;;;;5125847;28;20444;-38
2021/08/26 00:53:00;;;;;;;12.30;11.10;;;17.40;99.90;;;;;;5126260;28;20767;-39
2021/08/26 00:55:26;;;;;;;12.60;11.30;;;17.30;99.90;;;;;;5107493;28;20470;-39
2021/08/26 00:57:52;;;;;;;12.80;11.07;;;17.30;99.90;;;;;;5126317;28;20310;-40
2021/08/26 01:00:18;;;;;;;11.50;10.30;;;17.20;99.90;;;;;;5115158;28;20202;-41
2021/08/26 01:02:56;;;;;;;10.27;9.17;;;17.30;99.90;;;;;;5126077;28;20806;-38
2021/08/26 01:05:30;;;;;;;10.57;9.40;;;17.30;99.90;;;;;;5123481;28;20223;-39
2021/08/26 01:08:03;;;;;;;10.20;9.20;;;17.30;99.90;;;;;;5125958;28;20448;-38
2021/08/26 01:10:30;;;;;;;9.63;8.60;;;17.20;99.90;;;;;;5125802;28;20465;-40
2021/08/26 01:12:59;;;;;;;9.97;8.97;;;17.20;99.90;;;;;;5125909;28;20462;-39
2021/08/26 01:15:26;;;;;;;8.97;8.07;;;17.30;99.90;;;;;;5111653;27;20457;-42
2021/08/26 01:17:54;;;;;;;9.40;8.40;;;17.20;99.90;;;;;;5111327;27;20420;-41
2021/08/26 01:20:20;;;;;;;10.10;9.10;;;17.20;99.90;;;;;;5128222;27;20416;-38
2021/08/26 01:22:46;;;;;;;8.40;7.27;;;17.20;99.90;;;;;;5129603;27;20434;-39
2021/08/26 01:25:21;;;;;;;7.20;5.90;;;17.20;99.90;;;;;;5116400;27;20507;-38
2021/08/26 01:27:55;;;;;;;5.20;4.70;;;17.10;99.90;;;;;;5129540;27;20668;-39
2021/08/26 01:30:24;;;;;;;4.13;3.70;;;17.10;99.90;;;;;;5117711;27;20429;-39
2021/08/26 01:32:55;;;;;;;4.30;3.17;;;17.10;99.90;;;;;;5122589;27;20440;-40
2021/08/26 01:35:23;;;;;;;3.70;2.90;;;17.10;99.90;;;;;;5128400;27;20531;-42
2021/08/26 01:37:49;;;;;;;2.90;2.03;;;17.00;99.90;;;;;;5129747;27;20438;-39
2021/08/26 01:40:14;;;;;;;3.37;2.80;;;17.00;99.90;;;;;;5128985;27;20586;-38
2021/08/26 01:42:40;;;;;;;2.97;2.43;;;17.00;99.90;;;;;;5129605;27;20424;-39
2021/08/26 01:45:10;;;;;;;4.57;2.43;;;17.00;99.90;;;;;;5119991;27;20179;-38
2021/08/26 01:47:36;;;;;;;4.40;2.50;;;17.00;99.90;;;;;;5127497;27;20822;-39
2021/08/26 01:50:04;;;;;;;2.63;1.90;;;16.90;99.90;;;;;;5129170;27;20469;-38
2021/08/26 01:52:29;;;;;;;2.97;1.53;;;16.90;99.90;;;;;;5129366;27;20178;-38
2021/08/26 01:54:58;;;;;;;2.70;2.50;;;16.80;99.90;;;;;;5129154;27;20449;-44
2021/08/26 01:57:25;;;;;;;2.57;1.97;;;16.80;99.90;;;;;;5129340;27;20507;-38
2021/08/26 01:59:51;;;;;;;3.40;1.80;;;16.80;99.90;;;;;;5120682;27;20694;-38
2021/08/26 02:02:16;;;;;;;4.00;1.70;;;16.80;99.90;;;;;;5124701;27;20425;-40
2021/08/26 02:04:42;;;;;;;2.93;2.10;;;16.80;99.90;;;;;;5128937;27;20193;-39
2021/08/26 02:07:09;;;;;;;3.63;2.83;;;16.90;99.90;;;;;;5129384;27;20887;-38
2021/08/26 02:09:34;;;;;;;4.90;2.33;;;16.90;99.90;;;;;;5128016;27;20451;-39
2021/08/26 02:12:00;;;;;;;6.37;2.40;;;16.80;99.90;;;;;;5129010;27;20413;-40
2021/08/26 02:14:26;;;;;;;4.70;2.00;;;16.90;99.90;;;;;;5118372;27;20278;-39
2021/08/26 02:16:52;;;;;;;3.57;1.90;;;16.80;99.90;;;;;;5124173;27;20540;-38
2021/08/26 02:19:17;;;;;;;4.07;2.20;;;16.80;99.90;;;;;;5128364;27;20446;-38
2021/08/26 02:21:44;;;;;;;5.27;2.37;;;16.80;99.90;;;;;;5127080;27;20191;-41
2021/08/26 02:24:09;;;;;;;3.97;2.20;;;16.80;99.90;;;;;;5128893;27;20213;-39
2021/08/26 02:26:36;;;;;;;4.53;2.40;;;16.80;99.90;;;;;;5127065;27;20922;-39
2021/08/26 02:29:02;;;;;;;3.10;2.80;;;16.70;99.90;;;;;;5127958;27;20278;-38
2021/08/26 02:31:29;;;;;;;3.40;2.20;;;16.70;99.90;;;;;;5118666;27;20432;-38
2021/08/26 02:33:54;;;;;;;2.70;2.00;;;16.70;99.90;;;;;;5128629;27;20840;-38
2021/08/26 02:36:21;;;;;;;6.20;2.93;;;16.70;99.90;;;;;;5128272;27;20555;-41
2021/08/26 02:38:47;;;;;;;4.23;2.73;;;16.70;99.90;;;;;;5127635;27;20511;-39
2021/08/26 02:41:13;;;;;;;4.10;2.17;;;16.60;99.90;;;;;;5127869;27;20864;-39
2021/08/26 02:43:39;;;;;;;3.30;2.33;;;16.60;99.90;;;;;;5109716;27;20641;-38
2021/08/26 02:46:05;;;;;;;6.00;2.70;;;16.60;99.90;;;;;;5118827;27;20464;-38
2021/08/26 02:48:30;;;;;;;3.40;2.17;;;16.60;99.90;;;;;;5128225;27;20214;-39
2021/08/26 02:50:56;;;;;;;4.70;2.90;;;16.60;99.90;;;;;;5073817;28;20192;-41
2021/08/26 02:53:22;;;;;;;5.00;2.80;;;16.60;99.90;;;;;;5111368;27;20191;-38
2021/08/26 02:55:47;;;;;;;4.63;2.90;;;16.60;99.90;;;;;;5109700;27;20215;-39
2021/08/26 02:58:13;;;;;;;5.63;2.70;;;16.50;99.90;;;;;;5128186;27;20190;-40
2021/08/26 03:00:39;;;;;;;4.90;2.80;;;16.60;99.90;;;;;;5119848;27;20311;-39
2021/08/26 03:03:04;;;;;;;4.93;3.23;;;16.50;99.90;;;;;;5122227;27;20186;-41
2021/08/26 03:05:30;;;;;;;6.67;2.57;;;16.60;99.90;;;;;;5124990;27;20219;-39
2021/08/26 03:07:56;;;;;;;3.57;2.40;;;16.60;99.90;;;;;;5127627;27;20281;-41
2021/08/26 03:10:23;;;;;;;5.23;2.33;;;16.60;99.90;;;;;;5127366;27;20183;-39
2021/08/26 03:12:49;;;;;;;6.40;2.60;;;16.50;99.90;;;;;;5127683;27;20524;-39
2021/08/26 03:15:15;;;;;;;4.50;2.40;;;16.50;99.90;;;;;;5110080;27;20596;-39
2021/08/26 03:17:40;;;;;;;5.30;2.63;;;16.50;99.90;;;;;;5120813;27;20210;-38
2021/08/26 03:20:07;;;;;;;10.13;3.10;;;16.50;99.90;;;;;;5126999;27;20179;-38
2021/08/26 03:22:32;;;;;;;5.97;3.00;;;16.50;99.90;;;;;;5127681;27;20197;-42
2021/08/26 03:24:58;;;;;;;5.00;3.27;;;16.50;99.90;;;;;;5127338;27;20425;-39
2021/08/26 03:27:23;;;;;;;4.20;2.60;;;16.40;99.90;;;;;;5126625;27;20182;-38
2021/08/26 03:29:49;;;;;;;5.73;3.10;;;16.30;99.90;;;;;;5125381;27;20191;-38
2021/08/26 03:32:15;;;;;;;5.10;2.70;;;16.30;99.90;;;;;;5121037;27;20179;-40
2021/08/26 03:34:41;;;;;;;5.10;2.50;;;16.40;99.90;;;;;;5127380;27;20664;-40
2021/08/26 03:37:06;;;;;;;7.67;3.10;;;16.40;99.90;;;;;;5127714;27;20290;-38
2021/08/26 03:39:32;;;;;;;5.83;2.60;;;16.40;99.90;;;;;;5125357;27;20191;-38
2021/08/26 03:41:58;;;;;;;6.87;3.00;;;16.40;99.90;;;;;;5108750;27;20196;-42
2021/08/26 03:44:23;;;;;;;4.40;3.07;;;16.40;99.90;;;;;;5127300;27;20587;-41
2021/08/26 03:46:49;;;;;;;5.90;3.00;;;16.40;99.90;;;;;;5117465;27;20331;-38
2021/08/26 03:49:15;;;;;;;4.33;2.67;;;16.40;99.90;;;;;;5124426;27;20436;-38
2021/08/26 03:51:40;;;;;;;4.03;2.57;;;16.30;99.90;;;;;;5127573;27;20195;-38
2021/08/26 03:54:06;;;;;;;6.90;2.70;;;16.30;99.90;;;;;;5108473;27;20187;-38
2021/08/26 03:56:32;;;;;;;5.60;3.07;;;16.30;99.90;;;;;;5127130;27;20279;-38
2021/08/26 03:58:58;;;;;;;6.53;2.97;;;16.30;99.90;;;;;;5126595;27;20191;-39
2021/08/26 04:01:24;;;;;;;4.73;2.93;;;16.30;99.90;;;;;;5116052;27;20437;-41
2021/08/26 04:03:49;;;;;;;5.37;3.37;;;16.30;99.90;;;;;;5123803;27;20437;-40
2021/08/26 04:06:15;;;;;;;4.90;2.83;;;16.30;99.90;;;;;;5105534;27;20604;-39
2021/08/26 04:08:41;;;;;;;7.80;3.87;;;16.30;99.90;;;;;;5126049;27;20229;-37
2021/08/26 04:11:06;;;;;;;8.00;3.60;;;16.20;99.90;;;;;;5108356;27;20556;-43
2021/08/26 04:13:32;;;;;;;3.70;2.77;;;16.20;99.90;;;;;;5123419;27;20240;-41
2021/08/26 04:15:58;;;;;;;6.07;3.30;;;16.30;99.90;;;;;;5110322;27;20214;-38
2021/08/26 04:18:23;;;;;;;10.20;4.10;;;16.30;99.90;;;;;;5126296;27;20186;-38
2021/08/26 04:20:49;;;;;;;11.10;4.10;;;16.20;99.90;;;;;;5107491;27;20338;-40
2021/08/26 04:23:15;;;;;;;7.80;4.03;;;16.20;99.90;;;;;;5126772;27;20321;-39
2021/08/26 04:25:41;;;;;;;7.10;4.40;;;16.10;99.90;;;;;;5126831;27;20580;-38
2021/08/26 04:28:06;;;;;;;8.33;3.50;;;16.10;99.90;;;;;;5125146;28;20609;-38
2021/08/26 04:30:33;;;;;;;6.67;3.73;;;16.20;99.90;;;;;;5123485;28;20431;-39
2021/08/26 04:32:59;;;;;;;5.47;3.40;;;16.10;99.90;;;;;;5118987;28;20255;-38
2021/08/26 04:35:25;;;;;;;11.13;4.03;;;16.10;99.90;;;;;;5123719;28;20814;-38
2021/08/26 04:37:51;;;;;;;6.67;3.20;;;16.10;99.90;;;;;;5126169;28;20428;-40
2021/08/26 04:40:16;;;;;;;4.90;3.10;;;16.10;99.90;;;;;;5126314;28;20198;-38
2021/08/26 04:42:42;;;;;;;6.73;3.60;;;16.00;99.90;;;;;;5125714;28;20276;-40
2021/08/26 04:45:08;;;;;;;8.50;3.70;;;16.10;99.90;;;;;;5107874;28;20239;-39
2021/08/26 04:47:35;;;;;;;4.80;3.10;;;16.10;99.90;;;;;;5110191;28;20287;-40
2021/08/26 04:50:01;;;;;;;7.27;3.30;;;16.10;99.90;;;;;;5127350;27;20512;-39
2021/08/26 04:52:26;;;;;;;9.97;3.70;;;16.10;99.90;;;;;;5130402;27;20841;-38
2021/08/26 04:54:52;;;;;;;9.03;3.90;;;16.10;99.90;;;;;;5130765;27;20428;-38
2021/08/26 04:57:17;;;;;;;8.37;3.30;;;16.00;99.90;;;;;;5130939;27;20222;-38
2021/08/26 04:59:43;;;;;;;9.63;3.37;;;16.00;99.90;;;;;;5130028;27;20217;-39
2021/08/26 05:02:09;;;;;;;8.90;3.33;;;16.00;99.90;;;;;;5119814;27;20577;-38
2021/08/26 05:04:34;;;;;;;5.67;3.10;;;16.00;99.90;;;;;;5130195;27;20202;-38
2021/08/26 05:07:00;;;;;;;7.87;3.47;;;16.00;99.90;;;;;;5130276;27;20187;-40
2021/08/26 05:09:26;;;;;;;8.03;3.40;;;15.90;99.90;;;;;;5129475;27;20207;-39
2021/08/26 05:11:55;;;;;;;5.90;3.47;;;15.90;99.90;;;;;;5130021;27;20886;-39
2021/08/26 05:14:21;;;;;;;7.17;3.27;;;16.00;99.90;;;;;;5120576;27;20195;-38
2021/08/26 05:16:47;;;;;;;8.37;3.60;;;16.00;99.90;;;;;;5110864;27;20525;-38
2021/08/26 05:19:12;;;;;;;11.30;3.73;;;16.00;99.90;;;;;;5124441;27;20175;-40
2021/08/26 05:21:38;;;;;;;9.03;3.30;;;16.00;99.90;;;;;;5128863;27;20668;-38
2021/08/26 05:24:04;;;;;;;5.20;3.00;;;16.00;99.90;;;;;;5129926;27;20186;-38
2021/08/26 05:26:30;;;;;;;7.37;3.47;;;16.00;99.90;;;;;;5125870;27;20222;-39
2021/08/26 05:28:55;;;;;;;7.20;3.30;;;15.90;99.90;;;;;;5108805;28;20417;-38
2021/08/26 05:31:21;;;;;;;9.90;3.97;;;16.00;99.90;;;;;;5110711;27;20428;-38
2021/08/26 05:33:47;;;;;;;5.67;4.03;;;16.00;99.90;;;;;;5125170;27;20213;-38
2021/08/26 05:36:12;;;;;;;13.23;3.50;;;16.00;99.90;;;;;;5129447;27;20199;-39
2021/08/26 05:38:39;;;;;;;9.07;3.50;;;16.00;99.90;;;;;;5129276;27;20653;-38
2021/08/26 05:41:04;;;;;;;7.80;3.70;;;16.00;99.90;;;;;;5128535;27;20780;-38
2021/08/26 05:43:30;;;;;;;6.70;3.53;;;16.00;99.90;;;;;;5129568;27;20416;-38
2021/08/26 05:45:56;;;;;;;9.50;4.80;;;16.00;99.90;;;;;;5128759;27;20187;-38
2021/08/26 05:48:21;;;;;;;8.10;4.57;;;16.00;99.90;;;;;;5119421;27;20699;-38
2021/08/26 05:50:47;;;;;;;6.57;3.90;;;16.00;99.90;;;;;;5125154;27;20664;-41
2021/08/26 05:53:12;;;;;;;11.77;4.00;;;16.10;99.90;;;;;;5129570;27;20661;-38
2021/08/26 05:55:38;;;;;;;9.27;3.73;;;16.00;99.90;;;;;;5129380;27;20565;-39
2021/08/26 05:58:04;;;;;;;10.13;4.40;;;16.00;99.90;;;;;;5108240;27;20175;-38
2021/08/26 06:00:29;;;;;;;5.67;3.30;;;16.00;99.90;;;;;;5125666;27;20656;-39
2021/08/26 06:02:55;;;;;;;6.57;2.97;;;16.00;99.90;;;;;;5117534;27;20266;-38
2021/08/26 06:05:21;;;;;;;6.97;3.03;;;15.90;99.90;;;;;;5127323;27;20183;-38
2021/08/26 06:07:47;;;;;;;7.73;3.00;;;16.00;99.90;;;;;;5128597;27;20340;-39
2021/08/26 06:10:13;;;;;;;8.13;2.90;;;16.00;99.90;;;;;;5129335;27;20672;-38
2021/08/26 06:12:40;;;;;;;11.33;3.70;;;16.00;99.90;;;;;;5095217;27;20428;-38
2021/08/26 06:15:08;;;;;;;8.83;3.10;;;16.00;99.90;;;;;;5112626;27;20562;-38
2021/08/26 06:17:34;;;;;;;5.60;2.90;;;16.00;99.90;;;;;;5111844;27;20434;-38
2021/08/26 06:20:00;;;;;;;7.30;3.00;;;16.10;99.90;;;;;;5123275;27;20935;-41
2021/08/26 06:22:25;;;;;;;7.80;3.50;;;16.10;99.90;;;;;;5124472;27;20187;-40
2021/08/26 06:24:51;;;;;;;10.50;3.00;;;16.10;99.90;;;;;;5127269;27;20996;-38
2021/08/26 06:27:17;;;;;;;8.20;2.53;;;16.10;99.90;;;;;;5126161;27;20664;-38
2021/08/26 06:29:42;;;;;;;6.33;2.63;;;16.00;99.90;;;;;;5124584;27;20270;-38
2021/08/26 06:32:08;;;;;;;7.10;2.90;;;16.10;99.90;;;;;;5104958;27;20211;-39
2021/08/26 06:34:34;;;;;;;4.83;3.30;;;16.00;99.90;;;;;;5122614;27;20184;-38
2021/08/26 06:37:00;;;;;;;5.53;2.77;;;16.00;99.90;;;;;;5125461;27;20226;-39
2021/08/26 06:39:26;;;;;;;6.10;3.30;;;16.00;99.90;;;;;;5126115;27;20730;-38
2021/08/26 06:41:52;;;;;;;7.40;3.30;;;16.00;99.90;;;;;;5125829;27;20409;-38
2021/08/26 06:44:18;;;;;;;7.87;3.17;;;15.90;99.90;;;;;;5127847;27;20987;-38
2021/08/26 06:46:44;;;;;;;5.60;2.87;;;15.90;99.90;;;;;;5105900;28;20194;-39
2021/08/26 06:49:10;;;;;;;6.00;3.03;;;15.90;99.90;;;;;;5116469;27;20179;-39
2021/08/26 06:51:35;;;;;;;6.37;3.47;;;15.90;99.90;;;;;;5121408;27;20429;-38
2021/08/26 06:54:01;;;;;;;8.57;3.67;;;16.00;99.90;;;;;;5120645;27;20436;-38
2021/08/26 06:56:27;;;;;;;10.60;3.33;;;16.00;99.90;;;;;;5127470;27;20206;-39
2021/08/26 06:58:52;;;;;;;6.03;3.37;;;16.10;99.90;;;;;;5108955;27;20668;-39
2021/08/26 07:01:18;;;;;;;9.20;3.87;;;16.10;99.90;;;;;;5127909;27;20186;-39
2021/08/26 07:03:44;;;;;;;7.00;3.10;;;16.10;99.90;;;;;;5101614;27;20183;-41
2021/08/26 07:06:09;;;;;;;13.37;4.23;;;16.10;99.90;;;;;;5124960;27;20211;-38
2021/08/26 07:08:35;;;;;;;9.73;4.00;;;16.10;99.90;;;;;;5126826;27;20588;-41
2021/08/26 07:11:01;;;;;;;8.07;3.23;;;16.10;99.90;;;;;;5126977;27;20194;-38
2021/08/26 07:13:27;;;;;;;7.40;3.63;;;16.20;99.90;;;;;;5124580;27;20564;-40
2021/08/26 07:15:52;;;;;;;7.13;4.03;;;16.10;99.90;;;;;;5118876;27;20203;-38
2021/08/26 07:18:19;;;;;;;7.37;4.20;;;16.10;99.90;;;;;;5117420;27;20461;-43
2021/08/26 07:20:46;;;;;;;7.67;4.30;;;16.00;99.90;;;;;;5126626;27;20255;-38
2021/08/26 07:23:12;;;;;;;12.23;4.67;;;16.00;99.90;;;;;;5127242;27;20409;-41
2021/08/26 07:25:37;;;;;;;11.10;4.03;;;16.00;99.90;;;;;;5127887;27;20515;-39
2021/08/26 07:28:03;;;;;;;6.27;3.47;;;16.10;99.90;;;;;;5126539;27;20259;-38
2021/08/26 07:30:30;;;;;;;9.43;3.53;;;16.10;99.90;;;;;;5127008;27;20191;-38
2021/08/26 07:32:56;;;;;;;8.80;4.23;;;16.20;99.90;;;;;;5119905;27;20429;-38
2021/08/26 07:35:22;;;;;;;8.00;4.10;;;16.30;99.90;;;;;;5123707;27;20470;-38
2021/08/26 07:37:48;;;;;;;6.53;3.90;;;16.30;99.90;;;;;;5126097;27;20191;-38
2021/08/26 07:40:14;;;;;;;5.00;3.10;;;16.30;99.90;;;;;;5124251;27;20262;-38
2021/08/26 07:42:40;;;;;;;6.30;3.47;;;16.30;99.90;;;;;;5105738;27;20227;-38
2021/08/26 07:45:07;;;;;;;8.77;3.37;;;16.30;99.90;;;;;;5106980;28;20421;-38
2021/08/26 07:47:32;;;;;;;8.90;4.10;;;16.30;99.90;;;;;;5107506;27;20864;-39
2021/08/26 07:49:58;;;;;;;8.33;3.37;;;16.30;99.90;;;;;;5122227;27;20477;-38
2021/08/26 07:52:24;;;;;;;8.97;3.40;;;16.30;99.90;;;;;;5121669;27;20199;-38
2021/08/26 07:54:50;;;;;;;4.93;3.37;;;16.30;99.90;;;;;;5127166;27;20685;-38
2021/08/26 07:57:17;;;;;;;7.70;3.70;;;16.30;99.90;;;;;;5126806;27;20859;-39
2021/08/26 07:59:43;;;;;;;6.20;3.50;;;16.40;99.90;;;;;;5126454;27;20885;-38
2021/08/26 08:02:08;;;;;;;6.23;3.63;;;16.40;99.90;;;;;;5124361;27;20471;-39
2021/08/26 08:04:34;;;;;;;8.70;3.40;;;16.40;99.90;;;;;;5116807;27;20210;-40
2021/08/26 08:07:00;;;;;;;8.07;4.20;;;16.40;99.90;;;;;;5127128;27;20241;-39
2021/08/26 08:09:26;;;;;;;7.30;3.57;;;16.40;99.90;;;;;;5126107;27;20286;-38
2021/08/26 08:11:52;;;;;;;6.80;4.10;;;16.40;99.90;;;;;;5127192;27;20489;-39
2021/08/26 08:14:17;;;;;;;8.90;3.80;;;16.50;99.90;;;;;;5115933;27;20205;-40
2021/08/26 08:16:44;;;;;;;6.37;3.97;;;16.50;99.90;;;;;;5106575;28;20211;-38
2021/08/26 08:19:10;;;;;;;4.70;4.20;;;16.40;99.90;;;;;;5114181;27;20542;-41
2021/08/26 08:21:35;;;;;;;7.50;4.10;;;16.40;99.90;;;;;;5126881;27;20742;-39
2021/08/26 08:24:01;;;;;;;4.63;3.77;;;16.40;99.90;;;;;;5126024;27;20428;-38
2021/08/26 08:26:27;;;;;;;8.37;4.37;;;16.40;99.90;;;;;;5125658;27;20191;-38
2021/08/26 08:28:52;;;;;;;5.30;3.90;;;16.50;99.90;;;;;;5125855;27;20339;-39
2021/08/26 08:31:18;;;;;;;8.37;4.13;;;16.50;99.90;;;;;;5126589;28;20226;-40
2021/08/26 08:33:46;;;;;;;7.10;3.63;;;16.50;99.90;;;;;;5119104;28;20257;-39
2021/08/26 08:36:12;;;;;;;8.93;3.97;;;16.50;99.90;;;;;;5104037;28;20216;-39
2021/08/26 08:38:38;;;;;;;6.13;4.40;;;16.50;99.90;;;;;;5123732;28;20409;-38
2021/08/26 08:41:04;;;;;;;9.80;5.23;;;16.60;99.90;;;;;;5126139;28;20481;-41
2021/08/26 08:43:30;;;;;;;6.83;4.70;;;16.60;99.90;;;;;;5126552;28;20452;-38
2021/08/26 08:45:56;;;;;;;8.03;5.70;;;16.70;99.90;;;;;;5126628;28;20198;-39
2021/08/26 08:48:23;;;;;;;8.50;6.10;;;16.70;99.90;;;;;;5117026;28;20180;-38
2021/08/26 08:50:50;;;;;;;7.23;5.80;;;16.70;99.90;;;;;;5103382;28;20480;-39
2021/08/26 08:53:17;;;;;;;8.33;5.77;;;16.70;99.90;;;;;;5126284;28;20922;-39
2021/08/26 08:55:44;;;;;;;6.60;4.60;;;16.70;99.90;;;;;;5125924;28;20452;-39
2021/08/26 08:58:11;;;;;;;8.77;5.60;;;16.70;99.90;;;;;;5107876;28;20412;-41
2021/08/26 09:00:38;;;;;;;7.40;5.40;;;16.70;99.90;;;;;;5125379;28;20444;-39
2021/08/26 09:03:04;;;;;;;11.17;6.20;;;16.70;99.90;;;;;;5120375;28;20513;-41
2021/08/26 09:05:50;;;;;;;8.00;6.50;;;16.80;99.90;;;;;;5116496;28;20444;-41
2021/08/26 09:08:16;;;;;;;11.80;6.50;;;16.70;99.90;;;;;;5125412;28;20515;-39
2021/08/26 09:10:42;;;;;;;8.60;5.87;;;16.80;99.90;;;;;;5125210;28;20419;-40
2021/08/26 09:13:08;;;;;;;10.50;6.27;;;16.90;99.90;;;;;;5126044;28;20409;-38
2021/08/26 09:15:35;;;;;;;12.67;6.60;;;16.90;99.90;;;;;;5105456;28;20622;-41
2021/08/26 09:18:16;;;;;;;10.97;6.20;;;16.90;99.90;;;;;;5105198;28;20692;-38
2021/08/26 09:20:55;;;;;;;11.60;6.53;;;17.00;99.90;;;;;;5118150;28;20409;-39
2021/08/26 09:23:23;;;;;;;7.40;5.90;;;17.10;99.90;;;;;;5126199;28;20416;-41
2021/08/26 09:25:48;;;;;;;10.50;6.03;;;17.20;99.90;;;;;;5126289;28;20412;-40
2021/08/26 09:28:32;;;;;;;12.13;5.40;;;17.20;99.90;;;;;;5124351;28;20907;-38
2021/08/26 09:31:24;;;;;;;4.87;4.27;;;17.30;99.90;;;;;;5125481;28;20412;-39
2021/08/26 09:33:59;;;;;;;7.83;5.20;;;17.30;99.90;;;;;;5119349;28;20436;-39
2021/08/26 09:36:27;;;;;;;9.10;5.73;;;17.30;99.90;;;;;;5124753;27;20738;-42
2021/08/26 09:39:08;;;;;;;7.30;5.80;;;17.40;99.90;;;;;;5129302;27;20423;-40
2021/08/26 09:41:49;;;;;;;8.40;6.07;;;17.40;99.90;;;;;;5129768;27;20431;-38
2021/08/26 09:44:28;;;;;;;7.00;5.30;;;17.40;99.90;;;;;;5129548;27;20907;-38
2021/08/26 09:46:57;;;;;;;8.93;4.77;;;17.40;99.90;;;;;;5129810;27;20487;-38
2021/08/26 09:49:25;;;;;;;10.57;6.20;;;17.40;99.90;;;;;;5117336;27;20441;-36
2021/08/26 09:52:12;;;;;;;7.07;5.40;;;17.40;99.90;;;;;;5129693;27;20409;-37
2021/08/26 09:54:51;;;;;;;7.20;6.00;;;17.40;99.90;;;;;;5117097;27;20428;-37
2021/08/26 09:57:33;;;;;;;7.37;5.53;;;17.50;99.90;;;;;;5128883;27;20813;-36
2021/08/26 10:00:00;;;;;;;12.93;6.23;;;17.50;99.90;;;;;;5128835;27;20523;-37
2021/08/26 10:02:30;;;;;;;9.30;5.33;;;17.60;99.90;;;;;;5110666;27;20804;-37
2021/08/26 10:04:57;;;;;;;10.60;4.97;;;17.60;99.90;;;;;;5118781;27;20425;-37
2021/08/26 10:07:27;;;;;;;12.17;5.90;;;17.70;99.90;;;;;;5105506;27;20421;-36
2021/08/26 10:09:53;;;;;;;10.30;5.30;;;17.70;99.90;;;;;;5128583;27;20815;-37
2021/08/26 10:12:19;;;;;;;8.73;5.70;;;17.80;99.90;;;;;;5129373;27;20436;-38
2021/08/26 10:14:50;;;;;;;7.67;6.13;;;17.80;99.90;;;;;;5115748;27;20595;-37
2021/08/26 10:17:17;;;;;;;9.13;5.80;;;17.80;99.90;;;;;;5115909;27;20218;-37
2021/08/26 10:19:43;;;;;;;10.20;5.50;;;17.90;99.90;;;;;;5118905;27;20530;-36
2021/08/26 10:22:09;;;;;;;8.97;5.60;;;17.90;99.90;;;;;;5129001;27;20466;-37
2021/08/26 10:24:36;;;;;;;6.63;5.17;;;17.90;99.90;;;;;;5128638;27;20420;-37
2021/08/26 10:27:16;;;;;;;11.20;6.30;;;17.90;99.90;;;;;;5127240;27;20507;-37
2021/08/26 10:29:45;;;;;;;7.43;5.70;;;17.90;99.90;;;;;;5127965;27;20500;-37
2021/08/26 10:32:24;;;;;;;9.10;5.10;;;17.90;99.90;;;;;;5128818;27;20412;-37
2021/08/26 10:35:05;;;;;;;8.37;4.70;;;18.00;99.90;;;;;;5118699;27;20443;-37
2021/08/26 10:37:54;;;;;;;11.00;6.20;;;18.00;99.90;;;;;;5128473;27;20931;-36
2021/08/26 10:40:25;;;;;;;9.30;5.73;;;18.00;99.90;;;;;;5118280;27;20771;-37
2021/08/26 10:42:51;;;;;;;8.27;5.43;;;18.00;99.90;;;;;;5128062;27;20416;-37
2021/08/26 10:45:26;;;;;;;8.67;5.30;;;18.00;99.90;;;;;;5128228;27;20461;-37
2021/08/26 10:47:53;;;;;;;8.17;5.10;;;18.00;99.90;;;;;;5127901;27;20504;-37
2021/08/26 10:50:32;;;;;;;6.90;3.47;;;17.90;99.90;;;;;;5110513;27;20444;-37
2021/08/26 10:53:05;;;;;;;9.30;4.23;;;17.90;99.90;;;;;;5121273;27;20416;-37
2021/08/26 10:55:34;;;;;;;9.93;4.57;;;17.90;99.90;;;;;;5128089;27;20568;-37
2021/08/26 10:58:18;;;;;;;8.70;4.03;;;17.80;99.90;;;;;;5128185;27;20766;-37
2021/08/26 11:00:45;;;;;;;6.13;3.77;;;17.80;99.90;;;;;;5127188;27;21005;-37
2021/08/26 11:03:31;;;;;;;7.57;4.33;;;17.80;99.90;;;;;;5128439;27;20812;-37
2021/08/26 11:05:56;;;;;;;8.80;3.80;;;17.80;99.90;;;;;;5115439;27;20417;-37
2021/08/26 11:08:29;;;;;;;8.93;3.23;;;17.80;99.90;;;;;;5128012;27;20447;-37
2021/08/26 11:10:57;;;;;;;7.73;3.63;;;17.80;99.90;;;;;;5127189;27;20293;-37
2021/08/26 11:13:33;;;;;;;8.20;3.93;;;17.90;99.90;;;;;;5125470;27;20754;-37
2021/08/26 11:16:25;;;;;;;9.87;3.93;;;18.00;99.90;;;;;;5108610;28;20900;-37
2021/08/26 11:19:12;;;;;;;6.50;3.17;;;18.10;99.90;;;;;;5098582;27;20452;-37
2021/08/26 11:24:09;;;;;;;8.70;4.30;;;18.30;99.90;;;;;;5116448;27;20951;-36
2021/08/26 11:26:45;;;;;;;6.80;4.43;;;18.30;99.90;;;;;;5086926;28;21033;-37
2021/08/26 11:29:20;;;;;;;8.20;5.20;;;18.40;99.90;;;;;;5124601;27;20444;-36
2021/08/26 11:31:54;;;;;;;9.10;4.60;;;18.40;99.90;;;;;;5109274;27;20412;-37
2021/08/26 11:34:40;;;;;;;6.53;4.67;;;18.50;99.90;;;;;;5121844;27;20504;-37
2021/08/26 11:37:22;;;;;;;11.67;5.00;;;18.50;99.90;;;;;;5121415;27;21000;-37
2021/08/26 11:39:55;;;;;;;5.77;4.13;;;18.50;99.90;;;;;;5125767;27;20428;-37
2021/08/26 11:42:31;;;;;;;7.23;4.00;;;18.60;99.90;;;;;;5127266;27;20962;-37
2021/08/26 11:45:24;;;;;;;7.00;4.03;;;18.60;99.90;;;;;;5127432;27;20624;-37
2021/08/26 11:48:11;;;;;;;9.13;5.00;;;18.60;99.90;;;;;;5127126;27;20911;-37
2021/08/26 11:50:39;;;;;;;8.80;5.03;;;18.60;99.90;;;;;;5115544;27;20441;-38
2021/08/26 11:53:07;;;;;;;8.63;5.00;;;18.60;99.90;;;;;;5126838;27;20539;-38
2021/08/26 11:55:35;;;;;;;8.57;4.90;;;18.60;99.90;;;;;;5126962;27;20416;-37
2021/08/26 11:58:04;;;;;;;5.70;5.10;;;18.60;99.90;;;;;;5126726;27;20430;-38
2021/08/26 12:00:30;;;;;;;9.13;3.80;;;18.60;99.90;;;;;;5125723;27;20632;-37
2021/08/26 12:03:00;;;;;;;7.97;4.27;;;18.60;99.90;;;;;;5127106;27;20465;-38
2021/08/26 12:05:29;;;;;;;8.17;3.70;;;18.60;99.90;;;;;;5101108;27;20434;-36
2021/08/26 12:07:56;;;;;;;5.00;3.90;;;18.60;99.90;;;;;;5126656;27;20463;-37
2021/08/26 12:10:33;;;;;;;9.03;3.47;;;18.60;99.90;;;;;;5125981;27;20516;-36
2021/08/26 12:13:04;;;;;;;6.63;3.43;;;18.60;99.90;;;;;;5126664;27;20427;-37
2021/08/26 12:15:39;;;;;;;7.00;4.13;;;18.60;99.90;;;;;;5107271;27;20430;-37
2021/08/26 12:18:06;;;;;;;7.93;4.47;;;18.70;99.90;;;;;;5106255;28;20417;-37
2021/08/26 12:20:35;;;;;;;8.73;4.50;;;18.80;99.90;;;;;;5108604;27;20524;-37
2021/08/26 12:23:02;;;;;;;5.87;4.50;;;18.80;99.90;;;;;;5125529;27;20830;-37
2021/08/26 12:25:34;;;;;;;6.90;4.20;;;18.90;99.90;;;;;;5125445;27;20469;-37
2021/08/26 12:28:02;;;;;;;8.83;4.43;;;18.90;99.90;;;;;;5125152;27;20409;-37
2021/08/26 12:30:33;;;;;;;5.53;4.53;;;19.00;99.90;;;;;;5125977;27;20432;-37
2021/08/26 12:33:06;;;;;;;9.10;4.17;;;19.10;99.90;;;;;;5126789;27;20499;-37
2021/08/26 12:35:40;;;;;;;9.77;3.47;;;19.20;99.90;;;;;;5114776;28;20442;-37
2021/08/26 12:38:06;;;;;;;10.57;3.83;;;19.30;99.90;;;;;;5126347;28;20407;-37
2021/08/26 12:40:59;;;;;;;6.47;3.40;;;19.40;99.90;;;;;;5125830;28;20427;-37
2021/08/26 12:43:37;;;;;;;5.03;3.23;;;19.40;99.90;;;;;;5121914;28;20421;-37
2021/08/26 12:46:09;;;;;;;7.23;3.93;;;19.40;99.90;;;;;;5126013;28;20481;-37
2021/08/26 12:48:38;;;;;;;7.27;4.23;;;19.40;99.90;;;;;;5108061;28;20962;-37
2021/08/26 12:51:17;;;;;;;8.70;3.50;;;19.40;99.90;;;;;;5113976;28;20478;-37
2021/08/26 12:53:56;;;;;;;7.27;3.43;;;19.50;99.90;;;;;;5126239;28;20431;-37
2021/08/26 12:56:23;;;;;;;7.93;3.87;;;19.50;99.90;;;;;;5125947;28;20470;-37